sensor_id;sensor_type;location;lat;lon;timestamp;P1;durP1;ratioP1;P2;durP2;ratioP2
43580;SDS011;29175;51.030;4.606;2022-09-14T00:02:02;14.43;;;3.42;;
43580;SDS011;29175;51.030;4.606;2022-09-14T00:04:27;14.75;;;3.63;;
43580;SDS011;29175;51.030;4.606;2022-09-14T00:06:53;10.13;;;2.80;;
43580;SDS011;29175;51.030;4.606;2022-09-14T00:09:23;9.10;;;3.75;;
43580;SDS011;29175;51.030;4.606;2022-09-14T00:11:49;8.05;;;3.25;;
43580;SDS011;29175;51.030;4.606;2022-09-14T00:14:15;13.65;;;3.15;;
43580;SDS011;29175;51.030;4.606;2022-09-14T00:16:42;11.98;;;3.47;;
43580;SDS011;29175;51.030;4.606;2022-09-14T00:19:21;16.45;;;3.75;;
43580;SDS011;29175;51.030;4.606;2022-09-14T00:24:19;10.40;;;3.20;;
43580;SDS011;29175;51.030;4.606;2022-09-14T00:26:45;6.80;;;3.70;;
43580;SDS011;29175;51.030;4.606;2022-09-14T00:29:11;8.32;;;3.55;;
43580;SDS011;29175;51.030;4.606;2022-09-14T00:31:37;12.68;;;3.45;;
43580;SDS011;29175;51.030;4.606;2022-09-14T00:34:04;11.77;;;3.53;;
43580;SDS011;29175;51.030;4.606;2022-09-14T00:36:33;5.13;;;3.10;;
43580;SDS011;29175;51.030;4.606;2022-09-14T00:39:03;7.68;;;3.50;;
43580;SDS011;29175;51.030;4.606;2022-09-14T00:41:31;9.90;;;2.97;;
43580;SDS011;29175;51.030;4.606;2022-09-14T00:43:59;11.57;;;3.70;;
43580;SDS011;29175;51.030;4.606;2022-09-14T00:46:31;9.43;;;3.72;;
43580;SDS011;29175;51.030;4.606;2022-09-14T00:49:02;9.25;;;3.22;;
43580;SDS011;29175;51.030;4.606;2022-09-14T00:51:31;8.30;;;3.10;;
43580;SDS011;29175;51.030;4.606;2022-09-14T00:54:02;6.75;;;2.85;;
43580;SDS011;29175;51.030;4.606;2022-09-14T00:56:31;8.60;;;2.80;;
43580;SDS011;29175;51.030;4.606;2022-09-14T00:58:57;10.23;;;3.38;;
43580;SDS011;29175;51.030;4.606;2022-09-14T01:01:25;12.55;;;3.25;;
43580;SDS011;29175;51.030;4.606;2022-09-14T01:03:51;14.13;;;3.17;;
43580;SDS011;29175;51.030;4.606;2022-09-14T01:06:19;8.73;;;3.08;;
43580;SDS011;29175;51.030;4.606;2022-09-14T01:19:25;10.13;;;3.10;;
43580;SDS011;29175;51.030;4.606;2022-09-14T01:22:06;6.97;;;3.13;;
43580;SDS011;29175;51.030;4.606;2022-09-14T01:27:13;13.98;;;3.70;;
43580;SDS011;29175;51.030;4.606;2022-09-14T01:29:48;11.38;;;3.50;;
43580;SDS011;29175;51.030;4.606;2022-09-14T01:32:26;10.57;;;3.35;;
43580;SDS011;29175;51.030;4.606;2022-09-14T01:35:06;8.88;;;3.58;;
43580;SDS011;29175;51.030;4.606;2022-09-14T01:37:43;10.43;;;4.55;;
43580;SDS011;29175;51.030;4.606;2022-09-14T01:42:49;8.85;;;3.38;;
43580;SDS011;29175;51.030;4.606;2022-09-14T01:45:19;13.30;;;3.97;;
43580;SDS011;29175;51.030;4.606;2022-09-14T01:47:53;9.30;;;4.03;;
43580;SDS011;29175;51.030;4.606;2022-09-14T01:50:30;9.90;;;4.32;;
43580;SDS011;29175;51.030;4.606;2022-09-14T01:55:47;11.85;;;3.40;;
43580;SDS011;29175;51.030;4.606;2022-09-14T01:58:37;10.25;;;4.10;;
43580;SDS011;29175;51.030;4.606;2022-09-14T02:01:29;8.15;;;4.07;;
43580;SDS011;29175;51.030;4.606;2022-09-14T02:04:04;12.60;;;4.30;;
43580;SDS011;29175;51.030;4.606;2022-09-14T02:06:41;10.13;;;3.97;;
43580;SDS011;29175;51.030;4.606;2022-09-14T02:09:11;9.13;;;3.60;;
43580;SDS011;29175;51.030;4.606;2022-09-14T02:11:40;10.23;;;3.85;;
43580;SDS011;29175;51.030;4.606;2022-09-14T02:14:06;12.95;;;3.92;;
43580;SDS011;29175;51.030;4.606;2022-09-14T02:16:32;13.45;;;4.28;;
43580;SDS011;29175;51.030;4.606;2022-09-14T02:18:59;7.45;;;3.80;;
43580;SDS011;29175;51.030;4.606;2022-09-14T02:21:27;11.30;;;3.88;;
43580;SDS011;29175;51.030;4.606;2022-09-14T02:23:54;13.27;;;4.03;;
43580;SDS011;29175;51.030;4.606;2022-09-14T02:26:24;9.65;;;4.03;;
43580;SDS011;29175;51.030;4.606;2022-09-14T02:28:50;11.75;;;3.97;;
43580;SDS011;29175;51.030;4.606;2022-09-14T02:37:00;13.32;;;4.10;;
43580;SDS011;29175;51.030;4.606;2022-09-14T02:48:04;10.82;;;4.10;;
43580;SDS011;29175;51.030;4.606;2022-09-14T02:50:55;11.32;;;4.00;;
43580;SDS011;29175;51.030;4.606;2022-09-14T02:56:24;12.85;;;4.18;;
43580;SDS011;29175;51.030;4.606;2022-09-14T02:58:52;7.97;;;4.07;;
43580;SDS011;29175;51.030;4.606;2022-09-14T03:01:19;13.13;;;4.60;;
43580;SDS011;29175;51.030;4.606;2022-09-14T03:03:47;9.15;;;3.83;;
43580;SDS011;29175;51.030;4.606;2022-09-14T03:06:12;9.82;;;3.53;;
43580;SDS011;29175;51.030;4.606;2022-09-14T03:08:39;13.25;;;4.22;;
43580;SDS011;29175;51.030;4.606;2022-09-14T03:11:05;15.50;;;3.97;;
43580;SDS011;29175;51.030;4.606;2022-09-14T03:13:31;13.05;;;4.10;;
43580;SDS011;29175;51.030;4.606;2022-09-14T03:16:03;11.07;;;3.53;;
43580;SDS011;29175;51.030;4.606;2022-09-14T03:18:30;9.48;;;3.85;;
43580;SDS011;29175;51.030;4.606;2022-09-14T03:21:04;11.32;;;3.63;;
43580;SDS011;29175;51.030;4.606;2022-09-14T03:23:35;15.02;;;3.63;;
43580;SDS011;29175;51.030;4.606;2022-09-14T03:26:08;9.00;;;3.83;;
43580;SDS011;29175;51.030;4.606;2022-09-14T03:28:37;7.85;;;3.80;;
43580;SDS011;29175;51.030;4.606;2022-09-14T03:31:03;9.50;;;4.10;;
43580;SDS011;29175;51.030;4.606;2022-09-14T03:33:30;14.15;;;5.18;;
43580;SDS011;29175;51.030;4.606;2022-09-14T03:35:56;18.85;;;3.90;;
43580;SDS011;29175;51.030;4.606;2022-09-14T03:38:22;12.05;;;4.15;;
43580;SDS011;29175;51.030;4.606;2022-09-14T03:40:51;8.80;;;3.50;;
43580;SDS011;29175;51.030;4.606;2022-09-14T03:43:17;15.20;;;4.10;;
43580;SDS011;29175;51.030;4.606;2022-09-14T03:45:42;12.82;;;4.35;;
43580;SDS011;29175;51.030;4.606;2022-09-14T03:48:09;14.07;;;4.47;;
43580;SDS011;29175;51.030;4.606;2022-09-14T03:50:36;12.15;;;4.72;;
43580;SDS011;29175;51.030;4.606;2022-09-14T03:53:03;9.98;;;3.88;;
43580;SDS011;29175;51.030;4.606;2022-09-14T03:55:30;11.98;;;5.15;;
43580;SDS011;29175;51.030;4.606;2022-09-14T03:57:55;14.40;;;4.32;;
43580;SDS011;29175;51.030;4.606;2022-09-14T04:00:22;11.00;;;4.10;;
43580;SDS011;29175;51.030;4.606;2022-09-14T04:02:48;15.32;;;5.18;;
43580;SDS011;29175;51.030;4.606;2022-09-14T04:05:14;12.38;;;4.90;;
43580;SDS011;29175;51.030;4.606;2022-09-14T04:07:40;11.98;;;4.80;;
43580;SDS011;29175;51.030;4.606;2022-09-14T04:10:05;13.38;;;5.07;;
43580;SDS011;29175;51.030;4.606;2022-09-14T04:12:38;14.88;;;5.28;;
43580;SDS011;29175;51.030;4.606;2022-09-14T04:15:07;11.77;;;5.07;;
43580;SDS011;29175;51.030;4.606;2022-09-14T04:17:33;17.10;;;5.22;;
43580;SDS011;29175;51.030;4.606;2022-09-14T04:19:59;13.98;;;6.05;;
43580;SDS011;29175;51.030;4.606;2022-09-14T04:22:24;13.13;;;5.32;;
43580;SDS011;29175;51.030;4.606;2022-09-14T04:24:50;13.10;;;5.45;;
43580;SDS011;29175;51.030;4.606;2022-09-14T04:27:18;23.33;;;6.18;;
43580;SDS011;29175;51.030;4.606;2022-09-14T04:29:47;14.95;;;6.05;;
43580;SDS011;29175;51.030;4.606;2022-09-14T04:32:13;16.07;;;7.27;;
43580;SDS011;29175;51.030;4.606;2022-09-14T04:34:39;18.23;;;5.53;;
43580;SDS011;29175;51.030;4.606;2022-09-14T04:37:05;15.18;;;5.57;;
43580;SDS011;29175;51.030;4.606;2022-09-14T04:39:31;17.40;;;6.60;;
43580;SDS011;29175;51.030;4.606;2022-09-14T04:41:56;14.57;;;6.60;;
43580;SDS011;29175;51.030;4.606;2022-09-14T04:44:22;17.63;;;7.43;;
43580;SDS011;29175;51.030;4.606;2022-09-14T04:46:48;15.27;;;7.22;;
43580;SDS011;29175;51.030;4.606;2022-09-14T04:49:14;17.25;;;7.60;;
43580;SDS011;29175;51.030;4.606;2022-09-14T04:51:42;15.00;;;6.78;;
43580;SDS011;29175;51.030;4.606;2022-09-14T04:54:11;18.38;;;6.65;;
43580;SDS011;29175;51.030;4.606;2022-09-14T04:56:39;16.45;;;6.78;;
43580;SDS011;29175;51.030;4.606;2022-09-14T04:59:05;17.98;;;7.18;;
43580;SDS011;29175;51.030;4.606;2022-09-14T05:01:38;16.75;;;7.32;;
43580;SDS011;29175;51.030;4.606;2022-09-14T05:04:09;13.45;;;7.20;;
43580;SDS011;29175;51.030;4.606;2022-09-14T05:06:36;12.60;;;6.68;;
43580;SDS011;29175;51.030;4.606;2022-09-14T05:09:04;17.73;;;7.43;;
43580;SDS011;29175;51.030;4.606;2022-09-14T05:11:32;17.65;;;7.50;;
43580;SDS011;29175;51.030;4.606;2022-09-14T05:13:59;15.65;;;7.65;;
43580;SDS011;29175;51.030;4.606;2022-09-14T05:16:33;17.80;;;7.47;;
43580;SDS011;29175;51.030;4.606;2022-09-14T05:19:01;15.00;;;7.85;;
43580;SDS011;29175;51.030;4.606;2022-09-14T05:21:29;18.60;;;8.70;;
43580;SDS011;29175;51.030;4.606;2022-09-14T05:24:02;18.33;;;8.50;;
43580;SDS011;29175;51.030;4.606;2022-09-14T05:26:39;19.05;;;8.57;;
43580;SDS011;29175;51.030;4.606;2022-09-14T05:29:09;19.60;;;8.82;;
43580;SDS011;29175;51.030;4.606;2022-09-14T05:31:40;19.98;;;8.85;;
43580;SDS011;29175;51.030;4.606;2022-09-14T05:34:07;21.50;;;8.50;;
43580;SDS011;29175;51.030;4.606;2022-09-14T05:36:36;19.08;;;8.98;;
43580;SDS011;29175;51.030;4.606;2022-09-14T05:39:03;17.08;;;9.20;;
43580;SDS011;29175;51.030;4.606;2022-09-14T05:41:30;17.42;;;8.63;;
43580;SDS011;29175;51.030;4.606;2022-09-14T05:43:59;17.55;;;8.43;;
43580;SDS011;29175;51.030;4.606;2022-09-14T05:46:25;15.43;;;7.97;;
43580;SDS011;29175;51.030;4.606;2022-09-14T05:48:51;16.58;;;7.97;;
43580;SDS011;29175;51.030;4.606;2022-09-14T05:51:18;18.83;;;8.10;;
43580;SDS011;29175;51.030;4.606;2022-09-14T05:53:48;16.23;;;7.90;;
43580;SDS011;29175;51.030;4.606;2022-09-14T05:56:15;16.20;;;8.63;;
43580;SDS011;29175;51.030;4.606;2022-09-14T05:58:42;14.38;;;7.97;;
43580;SDS011;29175;51.030;4.606;2022-09-14T06:03:42;13.98;;;7.80;;
43580;SDS011;29175;51.030;4.606;2022-09-14T06:06:08;15.02;;;7.65;;
43580;SDS011;29175;51.030;4.606;2022-09-14T06:08:36;17.52;;;8.23;;
43580;SDS011;29175;51.030;4.606;2022-09-14T06:11:04;16.98;;;8.70;;
43580;SDS011;29175;51.030;4.606;2022-09-14T06:13:35;13.80;;;8.23;;
43580;SDS011;29175;51.030;4.606;2022-09-14T06:16:04;15.90;;;8.05;;
43580;SDS011;29175;51.030;4.606;2022-09-14T06:18:32;16.15;;;7.55;;
43580;SDS011;29175;51.030;4.606;2022-09-14T06:21:00;14.63;;;7.13;;
43580;SDS011;29175;51.030;4.606;2022-09-14T06:23:27;16.30;;;7.85;;
43580;SDS011;29175;51.030;4.606;2022-09-14T06:25:54;17.75;;;8.27;;
43580;SDS011;29175;51.030;4.606;2022-09-14T06:28:21;15.93;;;7.55;;
43580;SDS011;29175;51.030;4.606;2022-09-14T06:30:47;16.63;;;7.45;;
43580;SDS011;29175;51.030;4.606;2022-09-14T06:33:14;14.10;;;6.75;;
43580;SDS011;29175;51.030;4.606;2022-09-14T06:35:40;14.38;;;7.03;;
43580;SDS011;29175;51.030;4.606;2022-09-14T06:38:06;19.92;;;7.93;;
43580;SDS011;29175;51.030;4.606;2022-09-14T06:40:33;15.93;;;7.05;;
43580;SDS011;29175;51.030;4.606;2022-09-14T06:42:58;15.02;;;7.80;;
43580;SDS011;29175;51.030;4.606;2022-09-14T06:45:30;17.63;;;7.43;;
43580;SDS011;29175;51.030;4.606;2022-09-14T06:47:56;15.70;;;7.28;;
43580;SDS011;29175;51.030;4.606;2022-09-14T06:52:51;14.30;;;7.32;;
43580;SDS011;29175;51.030;4.606;2022-09-14T06:55:18;14.35;;;7.38;;
43580;SDS011;29175;51.030;4.606;2022-09-14T06:57:46;12.48;;;6.65;;
43580;SDS011;29175;51.030;4.606;2022-09-14T07:00:12;15.18;;;7.70;;
43580;SDS011;29175;51.030;4.606;2022-09-14T07:02:38;12.13;;;7.07;;
43580;SDS011;29175;51.030;4.606;2022-09-14T07:05:05;14.73;;;6.95;;
43580;SDS011;29175;51.030;4.606;2022-09-14T07:07:31;17.42;;;7.75;;
43580;SDS011;29175;51.030;4.606;2022-09-14T07:09:57;16.02;;;7.30;;
43580;SDS011;29175;51.030;4.606;2022-09-14T07:12:23;18.55;;;7.78;;
43580;SDS011;29175;51.030;4.606;2022-09-14T07:14:48;17.80;;;7.47;;
43580;SDS011;29175;51.030;4.606;2022-09-14T07:17:14;16.83;;;8.13;;
43580;SDS011;29175;51.030;4.606;2022-09-14T07:19:41;19.25;;;7.85;;
43580;SDS011;29175;51.030;4.606;2022-09-14T07:22:07;18.42;;;8.27;;
43580;SDS011;29175;51.030;4.606;2022-09-14T07:24:33;16.45;;;8.50;;
43580;SDS011;29175;51.030;4.606;2022-09-14T07:26:58;22.55;;;8.50;;
43580;SDS011;29175;51.030;4.606;2022-09-14T07:29:24;15.75;;;7.78;;
43580;SDS011;29175;51.030;4.606;2022-09-14T07:31:51;18.20;;;8.30;;
43580;SDS011;29175;51.030;4.606;2022-09-14T07:34:20;17.13;;;8.52;;
43580;SDS011;29175;51.030;4.606;2022-09-14T07:36:47;18.15;;;8.50;;
43580;SDS011;29175;51.030;4.606;2022-09-14T07:39:14;17.40;;;9.07;;
43580;SDS011;29175;51.030;4.606;2022-09-14T07:41:41;15.85;;;8.60;;
43580;SDS011;29175;51.030;4.606;2022-09-14T07:44:07;20.60;;;9.90;;
43580;SDS011;29175;51.030;4.606;2022-09-14T07:46:38;16.92;;;9.10;;
43580;SDS011;29175;51.030;4.606;2022-09-14T07:49:07;21.17;;;9.52;;
43580;SDS011;29175;51.030;4.606;2022-09-14T07:51:34;19.23;;;8.98;;
43580;SDS011;29175;51.030;4.606;2022-09-14T07:54:01;19.42;;;9.63;;
43580;SDS011;29175;51.030;4.606;2022-09-14T07:56:28;17.88;;;9.35;;
43580;SDS011;29175;51.030;4.606;2022-09-14T07:58:54;19.85;;;9.98;;
43580;SDS011;29175;51.030;4.606;2022-09-14T08:01:21;18.27;;;9.63;;
43580;SDS011;29175;51.030;4.606;2022-09-14T08:03:47;20.63;;;10.38;;
43580;SDS011;29175;51.030;4.606;2022-09-14T08:08:44;19.42;;;10.13;;
43580;SDS011;29175;51.030;4.606;2022-09-14T08:11:14;21.80;;;10.38;;
43580;SDS011;29175;51.030;4.606;2022-09-14T08:13:43;20.98;;;10.70;;
43580;SDS011;29175;51.030;4.606;2022-09-14T08:16:13;17.48;;;9.98;;
43580;SDS011;29175;51.030;4.606;2022-09-14T08:18:39;15.05;;;8.55;;
43580;SDS011;29175;51.030;4.606;2022-09-14T08:21:12;14.43;;;7.78;;
43580;SDS011;29175;51.030;4.606;2022-09-14T08:23:41;12.48;;;7.20;;
43580;SDS011;29175;51.030;4.606;2022-09-14T08:26:09;12.48;;;7.15;;
43580;SDS011;29175;51.030;4.606;2022-09-14T08:28:36;12.77;;;7.07;;
43580;SDS011;29175;51.030;4.606;2022-09-14T08:31:06;12.85;;;6.80;;
43580;SDS011;29175;51.030;4.606;2022-09-14T08:33:33;10.57;;;6.28;;
43580;SDS011;29175;51.030;4.606;2022-09-14T08:36:00;13.68;;;6.60;;
43580;SDS011;29175;51.030;4.606;2022-09-14T08:38:26;13.82;;;6.95;;
43580;SDS011;29175;51.030;4.606;2022-09-14T08:40:52;13.93;;;7.07;;
43580;SDS011;29175;51.030;4.606;2022-09-14T08:43:20;15.15;;;7.32;;
43580;SDS011;29175;51.030;4.606;2022-09-14T08:45:49;20.30;;;8.02;;
43580;SDS011;29175;51.030;4.606;2022-09-14T08:48:25;14.77;;;8.07;;
43580;SDS011;29175;51.030;4.606;2022-09-14T08:50:53;14.68;;;7.90;;
43580;SDS011;29175;51.030;4.606;2022-09-14T08:53:21;15.88;;;8.15;;
43580;SDS011;29175;51.030;4.606;2022-09-14T08:58:31;18.30;;;8.40;;
43580;SDS011;29175;51.030;4.606;2022-09-14T09:09:17;22.42;;;9.30;;
43580;SDS011;29175;51.030;4.606;2022-09-14T09:12:00;15.50;;;9.20;;
43580;SDS011;29175;51.030;4.606;2022-09-14T09:14:29;21.33;;;9.98;;
43580;SDS011;29175;51.030;4.606;2022-09-14T09:17:02;14.20;;;8.50;;
43580;SDS011;29175;51.030;4.606;2022-09-14T09:19:39;16.10;;;8.68;;
43580;SDS011;29175;51.030;4.606;2022-09-14T09:22:13;14.48;;;8.63;;
43580;SDS011;29175;51.030;4.606;2022-09-14T09:24:46;19.50;;;8.80;;
43580;SDS011;29175;51.030;4.606;2022-09-14T09:27:17;15.10;;;8.07;;
43580;SDS011;29175;51.030;4.606;2022-09-14T09:29:42;14.38;;;8.07;;
43580;SDS011;29175;51.030;4.606;2022-09-14T09:32:14;19.55;;;8.77;;
43580;SDS011;29175;51.030;4.606;2022-09-14T09:34:43;17.58;;;8.27;;
43580;SDS011;29175;51.030;4.606;2022-09-14T09:37:16;15.52;;;8.40;;
43580;SDS011;29175;51.030;4.606;2022-09-14T09:39:46;14.57;;;7.05;;
43580;SDS011;29175;51.030;4.606;2022-09-14T09:42:20;15.45;;;8.20;;
43580;SDS011;29175;51.030;4.606;2022-09-14T09:44:58;15.07;;;8.32;;
43580;SDS011;29175;51.030;4.606;2022-09-14T09:47:39;15.13;;;7.97;;
43580;SDS011;29175;51.030;4.606;2022-09-14T09:52:38;15.93;;;8.63;;
43580;SDS011;29175;51.030;4.606;2022-09-14T09:55:17;12.80;;;8.20;;
43580;SDS011;29175;51.030;4.606;2022-09-14T09:57:48;16.67;;;8.25;;
43580;SDS011;29175;51.030;4.606;2022-09-14T10:00:20;20.15;;;8.98;;
43580;SDS011;29175;51.030;4.606;2022-09-14T10:02:50;17.48;;;9.15;;
43580;SDS011;29175;51.030;4.606;2022-09-14T10:05:26;19.70;;;8.65;;
43580;SDS011;29175;51.030;4.606;2022-09-14T10:07:59;17.13;;;9.05;;
43580;SDS011;29175;51.030;4.606;2022-09-14T10:12:58;17.65;;;9.65;;
43580;SDS011;29175;51.030;4.606;2022-09-14T10:15:26;18.30;;;9.60;;
43580;SDS011;29175;51.030;4.606;2022-09-14T10:20:42;16.73;;;9.63;;
43580;SDS011;29175;51.030;4.606;2022-09-14T10:23:30;19.73;;;10.35;;
43580;SDS011;29175;51.030;4.606;2022-09-14T10:28:42;20.23;;;11.52;;
43580;SDS011;29175;51.030;4.606;2022-09-14T10:33:44;19.67;;;10.70;;
43580;SDS011;29175;51.030;4.606;2022-09-14T10:36:13;20.45;;;10.20;;
43580;SDS011;29175;51.030;4.606;2022-09-14T10:39:14;22.70;;;10.05;;
43580;SDS011;29175;51.030;4.606;2022-09-14T10:44:34;17.23;;;10.00;;
43580;SDS011;29175;51.030;4.606;2022-09-14T10:56:01;16.67;;;9.23;;
43580;SDS011;29175;51.030;4.606;2022-09-14T11:07:20;13.35;;;7.97;;
43580;SDS011;29175;51.030;4.606;2022-09-14T11:13:33;17.85;;;8.15;;
43580;SDS011;29175;51.030;4.606;2022-09-14T11:19:27;17.70;;;7.28;;
43580;SDS011;29175;51.030;4.606;2022-09-14T11:24:58;10.00;;;6.15;;
43580;SDS011;29175;51.030;4.606;2022-09-14T11:30:40;7.38;;;5.22;;
43580;SDS011;29175;51.030;4.606;2022-09-14T11:33:04;9.52;;;5.30;;
43580;SDS011;29175;51.030;4.606;2022-09-14T11:35:38;7.13;;;5.00;;
43580;SDS011;29175;51.030;4.606;2022-09-14T11:40:45;8.52;;;4.72;;
43580;SDS011;29175;51.030;4.606;2022-09-14T11:43:18;5.38;;;4.22;;
43580;SDS011;29175;51.030;4.606;2022-09-14T11:46:07;5.10;;;3.47;;
43580;SDS011;29175;51.030;4.606;2022-09-14T11:48:58;5.50;;;3.50;;
43580;SDS011;29175;51.030;4.606;2022-09-14T11:51:45;5.38;;;2.85;;
43580;SDS011;29175;51.030;4.606;2022-09-14T11:56:46;4.15;;;2.65;;
43580;SDS011;29175;51.030;4.606;2022-09-14T11:59:44;5.45;;;2.65;;
43580;SDS011;29175;51.030;4.606;2022-09-14T12:08:24;3.47;;;2.33;;
43580;SDS011;29175;51.030;4.606;2022-09-14T12:10:25;3.88;;;2.42;;
43580;SDS011;29175;51.030;4.606;2022-09-14T12:12:55;5.97;;;2.55;;
43580;SDS011;29175;51.030;4.606;2022-09-14T12:17:52;4.40;;;2.17;;
43580;SDS011;29175;51.030;4.606;2022-09-14T12:31:04;5.93;;;1.90;;
43580;SDS011;29175;51.030;4.606;2022-09-14T12:36:07;5.53;;;2.30;;
43580;SDS011;29175;51.030;4.606;2022-09-14T12:59:17;6.85;;;3.00;;
43580;SDS011;29175;51.030;4.606;2022-09-14T13:04:52;4.45;;;3.05;;
43580;SDS011;29175;51.030;4.606;2022-09-14T13:07:19;4.35;;;2.72;;
43580;SDS011;29175;51.030;4.606;2022-09-14T13:09:51;4.93;;;2.92;;
43580;SDS011;29175;51.030;4.606;2022-09-14T13:12:27;4.30;;;2.88;;
43580;SDS011;29175;51.030;4.606;2022-09-14T13:14:58;4.85;;;2.80;;
43580;SDS011;29175;51.030;4.606;2022-09-14T13:17:27;5.03;;;2.58;;
43580;SDS011;29175;51.030;4.606;2022-09-14T13:19:55;4.82;;;2.85;;
43580;SDS011;29175;51.030;4.606;2022-09-14T13:22:23;5.45;;;3.35;;
43580;SDS011;29175;51.030;4.606;2022-09-14T13:24:52;4.78;;;3.00;;
43580;SDS011;29175;51.030;4.606;2022-09-14T13:29:55;4.60;;;2.78;;
43580;SDS011;29175;51.030;4.606;2022-09-14T13:32:42;7.00;;;3.28;;
43580;SDS011;29175;51.030;4.606;2022-09-14T13:35:27;4.65;;;3.05;;
43580;SDS011;29175;51.030;4.606;2022-09-14T13:37:56;5.35;;;2.88;;
43580;SDS011;29175;51.030;4.606;2022-09-14T13:40:23;5.28;;;2.80;;
43580;SDS011;29175;51.030;4.606;2022-09-14T13:42:52;4.78;;;3.20;;
43580;SDS011;29175;51.030;4.606;2022-09-14T13:45:18;6.47;;;3.25;;
43580;SDS011;29175;51.030;4.606;2022-09-14T13:47:45;8.73;;;3.58;;
43580;SDS011;29175;51.030;4.606;2022-09-14T13:50:12;4.97;;;3.75;;
43580;SDS011;29175;51.030;4.606;2022-09-14T13:52:40;5.50;;;3.90;;
43580;SDS011;29175;51.030;4.606;2022-09-14T13:58:05;7.95;;;4.53;;
43580;SDS011;29175;51.030;4.606;2022-09-14T14:03:39;8.15;;;3.83;;
43580;SDS011;29175;51.030;4.606;2022-09-14T14:06:29;5.47;;;3.67;;
43580;SDS011;29175;51.030;4.606;2022-09-14T14:09:03;7.53;;;3.42;;
43580;SDS011;29175;51.030;4.606;2022-09-14T14:14:12;8.20;;;3.05;;
43580;SDS011;29175;51.030;4.606;2022-09-14T14:28:24;5.07;;;3.35;;
43580;SDS011;29175;51.030;4.606;2022-09-14T14:30:55;4.30;;;2.97;;
43580;SDS011;29175;51.030;4.606;2022-09-14T14:33:22;5.40;;;3.30;;
43580;SDS011;29175;51.030;4.606;2022-09-14T14:35:50;5.38;;;3.10;;
43580;SDS011;29175;51.030;4.606;2022-09-14T14:38:20;6.05;;;3.65;;
43580;SDS011;29175;51.030;4.606;2022-09-14T14:40:47;5.35;;;3.10;;
43580;SDS011;29175;51.030;4.606;2022-09-14T14:43:19;4.15;;;2.90;;
43580;SDS011;29175;51.030;4.606;2022-09-14T14:45:49;5.72;;;3.45;;
43580;SDS011;29175;51.030;4.606;2022-09-14T14:48:20;7.35;;;4.13;;
43580;SDS011;29175;51.030;4.606;2022-09-14T14:50:45;8.32;;;4.47;;
43580;SDS011;29175;51.030;4.606;2022-09-14T14:53:13;7.05;;;4.20;;
43580;SDS011;29175;51.030;4.606;2022-09-14T14:55:41;9.10;;;4.68;;
43580;SDS011;29175;51.030;4.606;2022-09-14T14:58:11;6.43;;;4.30;;
43580;SDS011;29175;51.030;4.606;2022-09-14T15:00:41;10.25;;;4.68;;
43580;SDS011;29175;51.030;4.606;2022-09-14T15:03:08;12.07;;;4.82;;
43580;SDS011;29175;51.030;4.606;2022-09-14T15:05:38;9.40;;;5.22;;
43580;SDS011;29175;51.030;4.606;2022-09-14T15:08:07;7.65;;;4.97;;
43580;SDS011;29175;51.030;4.606;2022-09-14T15:10:39;11.52;;;5.22;;
43580;SDS011;29175;51.030;4.606;2022-09-14T15:13:06;9.35;;;5.35;;
43580;SDS011;29175;51.030;4.606;2022-09-14T15:15:32;9.82;;;4.88;;
43580;SDS011;29175;51.030;4.606;2022-09-14T15:17:58;9.85;;;5.45;;
43580;SDS011;29175;51.030;4.606;2022-09-14T15:20:24;16.48;;;6.40;;
43580;SDS011;29175;51.030;4.606;2022-09-14T15:22:50;13.27;;;6.57;;
43580;SDS011;29175;51.030;4.606;2022-09-14T15:25:16;14.88;;;6.30;;
43580;SDS011;29175;51.030;4.606;2022-09-14T15:27:43;13.23;;;5.80;;
43580;SDS011;29175;51.030;4.606;2022-09-14T15:30:10;12.20;;;5.30;;
43580;SDS011;29175;51.030;4.606;2022-09-14T15:32:37;11.75;;;5.57;;
43580;SDS011;29175;51.030;4.606;2022-09-14T15:35:04;11.30;;;4.95;;
43580;SDS011;29175;51.030;4.606;2022-09-14T15:37:31;8.73;;;4.55;;
43580;SDS011;29175;51.030;4.606;2022-09-14T15:39:57;8.48;;;4.32;;
43580;SDS011;29175;51.030;4.606;2022-09-14T15:42:23;11.75;;;4.90;;
43580;SDS011;29175;51.030;4.606;2022-09-14T15:44:49;10.93;;;4.75;;
43580;SDS011;29175;51.030;4.606;2022-09-14T15:47:15;8.63;;;4.63;;
43580;SDS011;29175;51.030;4.606;2022-09-14T15:49:41;10.45;;;5.03;;
43580;SDS011;29175;51.030;4.606;2022-09-14T15:52:08;12.32;;;5.10;;
43580;SDS011;29175;51.030;4.606;2022-09-14T15:54:35;10.75;;;5.18;;
43580;SDS011;29175;51.030;4.606;2022-09-14T15:57:03;13.00;;;5.53;;
43580;SDS011;29175;51.030;4.606;2022-09-14T15:59:31;11.45;;;4.97;;
43580;SDS011;29175;51.030;4.606;2022-09-14T16:01:57;11.60;;;5.30;;
43580;SDS011;29175;51.030;4.606;2022-09-14T16:04:23;8.40;;;4.65;;
43580;SDS011;29175;51.030;4.606;2022-09-14T16:06:49;10.88;;;5.30;;
43580;SDS011;29175;51.030;4.606;2022-09-14T16:09:15;11.15;;;5.05;;
43580;SDS011;29175;51.030;4.606;2022-09-14T16:11:42;14.45;;;4.68;;
43580;SDS011;29175;51.030;4.606;2022-09-14T16:14:08;12.60;;;4.88;;
43580;SDS011;29175;51.030;4.606;2022-09-14T16:16:35;11.73;;;4.85;;
43580;SDS011;29175;51.030;4.606;2022-09-14T16:19:05;8.98;;;4.50;;
43580;SDS011;29175;51.030;4.606;2022-09-14T16:21:32;12.57;;;4.78;;
43580;SDS011;29175;51.030;4.606;2022-09-14T16:23:59;8.25;;;4.22;;
43580;SDS011;29175;51.030;4.606;2022-09-14T16:26:29;7.47;;;3.92;;
43580;SDS011;29175;51.030;4.606;2022-09-14T16:28:57;10.73;;;4.93;;
43580;SDS011;29175;51.030;4.606;2022-09-14T16:31:24;11.15;;;4.50;;
43580;SDS011;29175;51.030;4.606;2022-09-14T16:33:56;9.50;;;4.95;;
43580;SDS011;29175;51.030;4.606;2022-09-14T16:36:24;10.05;;;4.68;;
43580;SDS011;29175;51.030;4.606;2022-09-14T16:38:52;7.55;;;4.28;;
43580;SDS011;29175;51.030;4.606;2022-09-14T16:41:22;8.15;;;4.82;;
43580;SDS011;29175;51.030;4.606;2022-09-14T16:43:55;8.73;;;4.57;;
43580;SDS011;29175;51.030;4.606;2022-09-14T16:46:23;12.38;;;4.25;;
43580;SDS011;29175;51.030;4.606;2022-09-14T16:48:50;8.77;;;3.97;;
43580;SDS011;29175;51.030;4.606;2022-09-14T16:51:18;13.98;;;4.40;;
43580;SDS011;29175;51.030;4.606;2022-09-14T16:53:46;9.70;;;4.10;;
43580;SDS011;29175;51.030;4.606;2022-09-14T16:56:14;10.18;;;4.45;;
43580;SDS011;29175;51.030;4.606;2022-09-14T16:58:42;13.20;;;4.90;;
43580;SDS011;29175;51.030;4.606;2022-09-14T17:06:07;18.70;;;5.35;;
43580;SDS011;29175;51.030;4.606;2022-09-14T17:08:42;9.07;;;5.03;;
43580;SDS011;29175;51.030;4.606;2022-09-14T17:11:08;13.10;;;5.25;;
43580;SDS011;29175;51.030;4.606;2022-09-14T17:13:35;14.52;;;5.25;;
43580;SDS011;29175;51.030;4.606;2022-09-14T17:16:08;12.02;;;5.50;;
43580;SDS011;29175;51.030;4.606;2022-09-14T17:18:38;8.73;;;4.95;;
43580;SDS011;29175;51.030;4.606;2022-09-14T17:21:06;14.70;;;5.72;;
43580;SDS011;29175;51.030;4.606;2022-09-14T17:23:34;10.87;;;5.03;;
43580;SDS011;29175;51.030;4.606;2022-09-14T17:26:01;14.32;;;6.03;;
43580;SDS011;29175;51.030;4.606;2022-09-14T17:28:29;10.48;;;5.68;;
43580;SDS011;29175;51.030;4.606;2022-09-14T17:30:57;15.93;;;6.28;;
43580;SDS011;29175;51.030;4.606;2022-09-14T17:33:25;14.48;;;6.28;;
43580;SDS011;29175;51.030;4.606;2022-09-14T17:35:52;15.48;;;6.35;;
43580;SDS011;29175;51.030;4.606;2022-09-14T17:38:20;10.80;;;5.63;;
43580;SDS011;29175;51.030;4.606;2022-09-14T17:40:47;14.73;;;5.57;;
43580;SDS011;29175;51.030;4.606;2022-09-14T17:43:13;12.52;;;5.88;;
43580;SDS011;29175;51.030;4.606;2022-09-14T17:45:49;15.73;;;5.65;;
43580;SDS011;29175;51.030;4.606;2022-09-14T17:48:20;14.35;;;5.80;;
43580;SDS011;29175;51.030;4.606;2022-09-14T17:50:47;14.57;;;6.05;;
43580;SDS011;29175;51.030;4.606;2022-09-14T17:53:13;13.45;;;5.55;;